sensor_id;sensor_type;location;lat;lon;timestamp;P1;durP1;ratioP1;P2;durP2;ratioP2
23302;SDS011;11820;48.738;9.092;2024-02-26T00:00:00;3.37;;;2.13;;
23302;SDS011;11820;48.738;9.092;2024-02-26T00:02:26;2.40;;;1.90;;
23302;SDS011;11820;48.738;9.092;2024-02-26T00:04:51;2.37;;;1.87;;
23302;SDS011;11820;48.738;9.092;2024-02-26T00:07:16;2.40;;;2.07;;
23302;SDS011;11820;48.738;9.092;2024-02-26T00:09:41;3.43;;;2.40;;
23302;SDS011;11820;48.738;9.092;2024-02-26T00:12:07;3.27;;;2.37;;
23302;SDS011;11820;48.738;9.092;2024-02-26T00:14:32;2.50;;;2.07;;
23302;SDS011;11820;48.738;9.092;2024-02-26T00:16:57;3.07;;;2.00;;
23302;SDS011;11820;48.738;9.092;2024-02-26T00:19:22;3.10;;;2.00;;
23302;SDS011;11820;48.738;9.092;2024-02-26T00:21:48;2.77;;;1.90;;
23302;SDS011;11820;48.738;9.092;2024-02-26T00:24:13;2.13;;;1.80;;
23302;SDS011;11820;48.738;9.092;2024-02-26T00:26:38;2.40;;;1.73;;
23302;SDS011;11820;48.738;9.092;2024-02-26T00:29:04;2.53;;;2.00;;
23302;SDS011;11820;48.738;9.092;2024-02-26T00:31:29;2.17;;;1.77;;
23302;SDS011;11820;48.738;9.092;2024-02-26T00:33:55;2.17;;;1.97;;
23302;SDS011;11820;48.738;9.092;2024-02-26T00:36:20;3.77;;;1.93;;
23302;SDS011;11820;48.738;9.092;2024-02-26T00:38:45;3.33;;;2.23;;
23302;SDS011;11820;48.738;9.092;2024-02-26T00:41:15;2.67;;;2.40;;
23302;SDS011;11820;48.738;9.092;2024-02-26T00:43:41;2.87;;;2.20;;
23302;SDS011;11820;48.738;9.092;2024-02-26T00:46:07;2.20;;;2.00;;
23302;SDS011;11820;48.738;9.092;2024-02-26T00:48:32;1.87;;;1.77;;
23302;SDS011;11820;48.738;9.092;2024-02-26T00:50:58;1.80;;;1.60;;
23302;SDS011;11820;48.738;9.092;2024-02-26T00:53:23;2.97;;;2.10;;
23302;SDS011;11820;48.738;9.092;2024-02-26T00:55:50;3.63;;;1.90;;
23302;SDS011;11820;48.738;9.092;2024-02-26T00:58:15;3.57;;;2.10;;
23302;SDS011;11820;48.738;9.092;2024-02-26T01:00:40;2.40;;;1.77;;
23302;SDS011;11820;48.738;9.092;2024-02-26T01:03:05;3.40;;;2.27;;
23302;SDS011;11820;48.738;9.092;2024-02-26T01:05:30;5.70;;;2.03;;
23302;SDS011;11820;48.738;9.092;2024-02-26T01:07:56;2.77;;;2.37;;
23302;SDS011;11820;48.738;9.092;2024-02-26T01:10:21;2.83;;;1.93;;
23302;SDS011;11820;48.738;9.092;2024-02-26T01:12:46;2.20;;;1.97;;
23302;SDS011;11820;48.738;9.092;2024-02-26T01:15:12;2.73;;;1.80;;
23302;SDS011;11820;48.738;9.092;2024-02-26T01:17:37;2.07;;;1.77;;
23302;SDS011;11820;48.738;9.092;2024-02-26T01:20:04;3.43;;;1.83;;
23302;SDS011;11820;48.738;9.092;2024-02-26T01:22:29;1.90;;;1.70;;
23302;SDS011;11820;48.738;9.092;2024-02-26T01:24:54;3.73;;;1.77;;
23302;SDS011;11820;48.738;9.092;2024-02-26T01:27:20;2.40;;;1.53;;
23302;SDS011;11820;48.738;9.092;2024-02-26T01:29:45;2.90;;;1.80;;
23302;SDS011;11820;48.738;9.092;2024-02-26T01:32:10;2.60;;;2.30;;
23302;SDS011;11820;48.738;9.092;2024-02-26T01:34:35;5.63;;;1.90;;
23302;SDS011;11820;48.738;9.092;2024-02-26T01:37:02;2.37;;;1.63;;
23302;SDS011;11820;48.738;9.092;2024-02-26T01:39:27;2.30;;;1.43;;
23302;SDS011;11820;48.738;9.092;2024-02-26T01:41:54;2.80;;;2.13;;
23302;SDS011;11820;48.738;9.092;2024-02-26T01:44:19;1.40;;;1.20;;
23302;SDS011;11820;48.738;9.092;2024-02-26T01:46:44;3.17;;;1.40;;
23302;SDS011;11820;48.738;9.092;2024-02-26T01:49:11;1.20;;;1.10;;
23302;SDS011;11820;48.738;9.092;2024-02-26T01:51:37;0.90;;;0.83;;
23302;SDS011;11820;48.738;9.092;2024-02-26T01:54:03;1.20;;;1.00;;
23302;SDS011;11820;48.738;9.092;2024-02-26T01:56:29;1.10;;;1.00;;
23302;SDS011;11820;48.738;9.092;2024-02-26T01:58:57;1.23;;;0.90;;
23302;SDS011;11820;48.738;9.092;2024-02-26T02:01:24;1.20;;;0.80;;
23302;SDS011;11820;48.738;9.092;2024-02-26T02:03:51;1.10;;;1.00;;
23302;SDS011;11820;48.738;9.092;2024-02-26T02:06:16;2.43;;;1.00;;
23302;SDS011;11820;48.738;9.092;2024-02-26T02:08:43;1.73;;;1.00;;
23302;SDS011;11820;48.738;9.092;2024-02-26T02:11:08;1.97;;;1.20;;
23302;SDS011;11820;48.738;9.092;2024-02-26T02:13:36;1.50;;;1.10;;
23302;SDS011;11820;48.738;9.092;2024-02-26T02:16:01;0.90;;;0.80;;
23302;SDS011;11820;48.738;9.092;2024-02-26T02:18:26;1.60;;;0.90;;
23302;SDS011;11820;48.738;9.092;2024-02-26T02:20:53;1.80;;;1.10;;
23302;SDS011;11820;48.738;9.092;2024-02-26T02:23:18;1.20;;;0.80;;
23302;SDS011;11820;48.738;9.092;2024-02-26T02:25:43;1.07;;;0.73;;
23302;SDS011;11820;48.738;9.092;2024-02-26T02:28:09;1.90;;;0.73;;
23302;SDS011;11820;48.738;9.092;2024-02-26T02:30:34;0.60;;;0.60;;
23302;SDS011;11820;48.738;9.092;2024-02-26T02:33:00;0.60;;;0.50;;
23302;SDS011;11820;48.738;9.092;2024-02-26T02:35:26;0.87;;;0.70;;
23302;SDS011;11820;48.738;9.092;2024-02-26T02:37:55;0.67;;;0.63;;
23302;SDS011;11820;48.738;9.092;2024-02-26T02:40:22;2.03;;;0.60;;
23302;SDS011;11820;48.738;9.092;2024-02-26T02:42:47;0.73;;;0.73;;
23302;SDS011;11820;48.738;9.092;2024-02-26T02:45:13;0.90;;;0.60;;
23302;SDS011;11820;48.738;9.092;2024-02-26T02:47:38;1.50;;;0.50;;
23302;SDS011;11820;48.738;9.092;2024-02-26T02:50:03;0.70;;;0.70;;
23302;SDS011;11820;48.738;9.092;2024-02-26T02:52:29;0.70;;;0.47;;
23302;SDS011;11820;48.738;9.092;2024-02-26T02:54:54;1.83;;;0.60;;
23302;SDS011;11820;48.738;9.092;2024-02-26T02:57:19;1.77;;;0.50;;
23302;SDS011;11820;48.738;9.092;2024-02-26T02:59:46;0.60;;;0.60;;
23302;SDS011;11820;48.738;9.092;2024-02-26T03:02:11;0.93;;;0.50;;
23302;SDS011;11820;48.738;9.092;2024-02-26T03:04:37;0.93;;;0.50;;
23302;SDS011;11820;48.738;9.092;2024-02-26T03:07:02;0.57;;;0.50;;
23302;SDS011;11820;48.738;9.092;2024-02-26T03:09:27;0.60;;;0.60;;
23302;SDS011;11820;48.738;9.092;2024-02-26T03:11:53;0.60;;;0.60;;
23302;SDS011;11820;48.738;9.092;2024-02-26T03:14:18;1.07;;;0.60;;
23302;SDS011;11820;48.738;9.092;2024-02-26T03:16:43;0.80;;;0.60;;
23302;SDS011;11820;48.738;9.092;2024-02-26T03:19:09;0.50;;;0.50;;
23302;SDS011;11820;48.738;9.092;2024-02-26T03:21:34;1.07;;;0.50;;
23302;SDS011;11820;48.738;9.092;2024-02-26T03:23:59;0.90;;;0.40;;
23302;SDS011;11820;48.738;9.092;2024-02-26T03:26:24;0.50;;;0.50;;
23302;SDS011;11820;48.738;9.092;2024-02-26T03:28:50;0.30;;;0.30;;
23302;SDS011;11820;48.738;9.092;2024-02-26T03:31:15;0.67;;;0.60;;
23302;SDS011;11820;48.738;9.092;2024-02-26T03:33:40;1.03;;;0.57;;
23302;SDS011;11820;48.738;9.092;2024-02-26T03:36:06;0.50;;;0.43;;
23302;SDS011;11820;48.738;9.092;2024-02-26T03:38:32;3.47;;;0.80;;
23302;SDS011;11820;48.738;9.092;2024-02-26T03:40:57;0.50;;;0.50;;
23302;SDS011;11820;48.738;9.092;2024-02-26T03:43:23;0.70;;;0.53;;
23302;SDS011;11820;48.738;9.092;2024-02-26T03:45:48;0.70;;;0.50;;
23302;SDS011;11820;48.738;9.092;2024-02-26T03:48:13;0.40;;;0.40;;
23302;SDS011;11820;48.738;9.092;2024-02-26T03:50:38;0.60;;;0.60;;
23302;SDS011;11820;48.738;9.092;2024-02-26T03:53:04;0.60;;;0.60;;
23302;SDS011;11820;48.738;9.092;2024-02-26T03:55:29;0.87;;;0.60;;
23302;SDS011;11820;48.738;9.092;2024-02-26T03:57:54;0.70;;;0.70;;
23302;SDS011;11820;48.738;9.092;2024-02-26T04:00:19;0.53;;;0.53;;
23302;SDS011;11820;48.738;9.092;2024-02-26T04:02:46;2.10;;;0.60;;
23302;SDS011;11820;48.738;9.092;2024-02-26T04:05:12;0.40;;;0.40;;
23302;SDS011;11820;48.738;9.092;2024-02-26T04:07:38;0.50;;;0.50;;
23302;SDS011;11820;48.738;9.092;2024-02-26T04:10:08;0.80;;;0.70;;
23302;SDS011;11820;48.738;9.092;2024-02-26T04:12:34;0.50;;;0.50;;
23302;SDS011;11820;48.738;9.092;2024-02-26T04:15:00;1.23;;;0.70;;
23302;SDS011;11820;48.738;9.092;2024-02-26T04:17:25;0.90;;;0.70;;
23302;SDS011;11820;48.738;9.092;2024-02-26T04:19:50;1.07;;;0.77;;
23302;SDS011;11820;48.738;9.092;2024-02-26T04:22:15;1.47;;;0.83;;
23302;SDS011;11820;48.738;9.092;2024-02-26T04:24:41;0.73;;;0.70;;
23302;SDS011;11820;48.738;9.092;2024-02-26T04:27:06;0.93;;;0.80;;
23302;SDS011;11820;48.738;9.092;2024-02-26T04:29:31;1.10;;;1.00;;
23302;SDS011;11820;48.738;9.092;2024-02-26T04:31:56;1.07;;;0.90;;
23302;SDS011;11820;48.738;9.092;2024-02-26T04:34:22;3.07;;;0.97;;
23302;SDS011;11820;48.738;9.092;2024-02-26T04:36:47;1.60;;;1.07;;
23302;SDS011;11820;48.738;9.092;2024-02-26T04:39:13;1.87;;;1.17;;
23302;SDS011;11820;48.738;9.092;2024-02-26T04:41:38;2.83;;;1.30;;
23302;SDS011;11820;48.738;9.092;2024-02-26T04:44:03;1.90;;;1.07;;
23302;SDS011;11820;48.738;9.092;2024-02-26T04:46:29;1.10;;;1.00;;
23302;SDS011;11820;48.738;9.092;2024-02-26T04:48:54;1.50;;;1.13;;
23302;SDS011;11820;48.738;9.092;2024-02-26T04:51:19;1.60;;;1.40;;
23302;SDS011;11820;48.738;9.092;2024-02-26T04:53:44;2.23;;;1.30;;
23302;SDS011;11820;48.738;9.092;2024-02-26T04:56:10;2.17;;;1.57;;
23302;SDS011;11820;48.738;9.092;2024-02-26T04:58:35;1.30;;;1.20;;
23302;SDS011;11820;48.738;9.092;2024-02-26T05:01:00;2.17;;;1.63;;
23302;SDS011;11820;48.738;9.092;2024-02-26T05:03:25;1.67;;;1.53;;
23302;SDS011;11820;48.738;9.092;2024-02-26T05:05:51;3.90;;;2.30;;
23302;SDS011;11820;48.738;9.092;2024-02-26T05:08:16;2.80;;;2.07;;
23302;SDS011;11820;48.738;9.092;2024-02-26T05:10:41;2.20;;;1.70;;
23302;SDS011;11820;48.738;9.092;2024-02-26T05:13:08;2.03;;;1.60;;
23302;SDS011;11820;48.738;9.092;2024-02-26T05:15:33;1.70;;;1.47;;
23302;SDS011;11820;48.738;9.092;2024-02-26T05:17:59;2.83;;;1.40;;
23302;SDS011;11820;48.738;9.092;2024-02-26T05:20:24;6.33;;;1.67;;
23302;SDS011;11820;48.738;9.092;2024-02-26T05:22:49;3.00;;;1.70;;
23302;SDS011;11820;48.738;9.092;2024-02-26T05:25:15;1.87;;;1.53;;
23302;SDS011;11820;48.738;9.092;2024-02-26T05:27:41;3.23;;;1.60;;
23302;SDS011;11820;48.738;9.092;2024-02-26T05:30:06;3.20;;;1.57;;
23302;SDS011;11820;48.738;9.092;2024-02-26T05:32:32;1.80;;;1.67;;
23302;SDS011;11820;48.738;9.092;2024-02-26T05:34:57;2.63;;;2.17;;
23302;SDS011;11820;48.738;9.092;2024-02-26T05:37:22;2.03;;;1.90;;
23302;SDS011;11820;48.738;9.092;2024-02-26T05:39:48;2.97;;;1.90;;
23302;SDS011;11820;48.738;9.092;2024-02-26T05:42:13;3.40;;;1.73;;
23302;SDS011;11820;48.738;9.092;2024-02-26T05:44:38;2.10;;;1.67;;
23302;SDS011;11820;48.738;9.092;2024-02-26T05:47:03;2.17;;;1.50;;
23302;SDS011;11820;48.738;9.092;2024-02-26T05:49:29;1.80;;;1.40;;
23302;SDS011;11820;48.738;9.092;2024-02-26T05:51:54;1.80;;;1.30;;
23302;SDS011;11820;48.738;9.092;2024-02-26T05:54:20;3.77;;;1.93;;
23302;SDS011;11820;48.738;9.092;2024-02-26T05:56:45;1.70;;;1.60;;
23302;SDS011;11820;48.738;9.092;2024-02-26T05:59:10;2.53;;;2.27;;
23302;SDS011;11820;48.738;9.092;2024-02-26T06:01:35;2.20;;;2.00;;
23302;SDS011;11820;48.738;9.092;2024-02-26T06:04:01;3.83;;;2.20;;
23302;SDS011;11820;48.738;9.092;2024-02-26T06:06:26;2.90;;;1.87;;
23302;SDS011;11820;48.738;9.092;2024-02-26T06:08:51;2.53;;;2.17;;
23302;SDS011;11820;48.738;9.092;2024-02-26T06:11:17;2.63;;;1.90;;
23302;SDS011;11820;48.738;9.092;2024-02-26T06:13:43;2.47;;;1.70;;
23302;SDS011;11820;48.738;9.092;2024-02-26T06:16:08;1.97;;;1.77;;
23302;SDS011;11820;48.738;9.092;2024-02-26T06:18:33;1.97;;;1.77;;
23302;SDS011;11820;48.738;9.092;2024-02-26T06:20:59;1.90;;;1.63;;
23302;SDS011;11820;48.738;9.092;2024-02-26T06:23:24;3.17;;;2.00;;
23302;SDS011;11820;48.738;9.092;2024-02-26T06:25:50;3.57;;;1.90;;
23302;SDS011;11820;48.738;9.092;2024-02-26T06:28:16;3.70;;;1.80;;
23302;SDS011;11820;48.738;9.092;2024-02-26T06:30:41;2.10;;;1.80;;
23302;SDS011;11820;48.738;9.092;2024-02-26T06:33:07;1.83;;;1.53;;
23302;SDS011;11820;48.738;9.092;2024-02-26T06:35:33;1.90;;;1.60;;
23302;SDS011;11820;48.738;9.092;2024-02-26T06:37:58;1.80;;;1.37;;
23302;SDS011;11820;48.738;9.092;2024-02-26T06:40:24;2.00;;;1.60;;
23302;SDS011;11820;48.738;9.092;2024-02-26T06:42:50;3.03;;;1.43;;
23302;SDS011;11820;48.738;9.092;2024-02-26T06:45:15;2.20;;;1.73;;
23302;SDS011;11820;48.738;9.092;2024-02-26T06:47:41;2.00;;;1.50;;
23302;SDS011;11820;48.738;9.092;2024-02-26T06:50:06;2.87;;;1.50;;
23302;SDS011;11820;48.738;9.092;2024-02-26T06:52:31;1.50;;;1.30;;
23302;SDS011;11820;48.738;9.092;2024-02-26T06:54:56;2.23;;;1.40;;
23302;SDS011;11820;48.738;9.092;2024-02-26T06:57:22;2.83;;;1.40;;
23302;SDS011;11820;48.738;9.092;2024-02-26T06:59:47;2.67;;;1.40;;
23302;SDS011;11820;48.738;9.092;2024-02-26T07:02:13;1.83;;;0.97;;
23302;SDS011;11820;48.738;9.092;2024-02-26T07:04:38;1.10;;;0.90;;
23302;SDS011;11820;48.738;9.092;2024-02-26T07:07:04;1.53;;;0.90;;
23302;SDS011;11820;48.738;9.092;2024-02-26T07:09:29;1.87;;;1.00;;
23302;SDS011;11820;48.738;9.092;2024-02-26T07:11:55;1.67;;;0.97;;
23302;SDS011;11820;48.738;9.092;2024-02-26T07:14:20;0.70;;;0.70;;
23302;SDS011;11820;48.738;9.092;2024-02-26T07:16:45;1.00;;;0.90;;
23302;SDS011;11820;48.738;9.092;2024-02-26T07:19:11;1.80;;;1.13;;
23302;SDS011;11820;48.738;9.092;2024-02-26T07:21:36;2.53;;;1.10;;
23302;SDS011;11820;48.738;9.092;2024-02-26T07:24:02;1.07;;;0.87;;
23302;SDS011;11820;48.738;9.092;2024-02-26T07:26:27;1.40;;;1.00;;
23302;SDS011;11820;48.738;9.092;2024-02-26T07:28:54;2.83;;;0.90;;
23302;SDS011;11820;48.738;9.092;2024-02-26T07:31:20;0.80;;;0.80;;
23302;SDS011;11820;48.738;9.092;2024-02-26T07:33:45;1.40;;;1.00;;
23302;SDS011;11820;48.738;9.092;2024-02-26T07:36:10;1.83;;;1.00;;
23302;SDS011;11820;48.738;9.092;2024-02-26T07:38:36;1.17;;;1.00;;
23302;SDS011;11820;48.738;9.092;2024-02-26T07:41:02;1.23;;;1.00;;
23302;SDS011;11820;48.738;9.092;2024-02-26T07:43:27;1.53;;;1.10;;
23302;SDS011;11820;48.738;9.092;2024-02-26T07:45:53;1.33;;;1.10;;
23302;SDS011;11820;48.738;9.092;2024-02-26T07:48:18;3.70;;;1.40;;
23302;SDS011;11820;48.738;9.092;2024-02-26T07:50:43;1.17;;;1.07;;
23302;SDS011;11820;48.738;9.092;2024-02-26T07:53:08;3.00;;;1.63;;
23302;SDS011;11820;48.738;9.092;2024-02-26T07:55:34;1.27;;;1.17;;
23302;SDS011;11820;48.738;9.092;2024-02-26T07:57:59;3.13;;;1.47;;
23302;SDS011;11820;48.738;9.092;2024-02-26T08:00:25;3.20;;;1.30;;
23302;SDS011;11820;48.738;9.092;2024-02-26T08:02:50;2.10;;;1.47;;
23302;SDS011;11820;48.738;9.092;2024-02-26T08:05:15;1.33;;;1.20;;
23302;SDS011;11820;48.738;9.092;2024-02-26T08:07:41;1.53;;;1.23;;
23302;SDS011;11820;48.738;9.092;2024-02-26T08:10:06;2.60;;;1.10;;
23302;SDS011;11820;48.738;9.092;2024-02-26T08:12:32;2.60;;;1.10;;
23302;SDS011;11820;48.738;9.092;2024-02-26T08:14:57;3.27;;;1.20;;
23302;SDS011;11820;48.738;9.092;2024-02-26T08:17:23;1.70;;;1.10;;
23302;SDS011;11820;48.738;9.092;2024-02-26T08:19:48;2.27;;;1.40;;
23302;SDS011;11820;48.738;9.092;2024-02-26T08:22:14;1.13;;;1.03;;
23302;SDS011;11820;48.738;9.092;2024-02-26T08:24:41;1.53;;;1.20;;
23302;SDS011;11820;48.738;9.092;2024-02-26T08:27:07;1.93;;;1.37;;
23302;SDS011;11820;48.738;9.092;2024-02-26T08:29:32;2.47;;;1.20;;
23302;SDS011;11820;48.738;9.092;2024-02-26T08:31:57;2.33;;;1.57;;
23302;SDS011;11820;48.738;9.092;2024-02-26T08:34:23;1.70;;;1.60;;
23302;SDS011;11820;48.738;9.092;2024-02-26T08:36:48;3.73;;;1.77;;
23302;SDS011;11820;48.738;9.092;2024-02-26T08:39:14;3.30;;;1.80;;
23302;SDS011;11820;48.738;9.092;2024-02-26T08:41:39;3.27;;;1.87;;
23302;SDS011;11820;48.738;9.092;2024-02-26T08:44:04;2.83;;;2.10;;
23302;SDS011;11820;48.738;9.092;2024-02-26T08:46:30;5.10;;;2.10;;
23302;SDS011;11820;48.738;9.092;2024-02-26T08:48:56;3.13;;;1.90;;
23302;SDS011;11820;48.738;9.092;2024-02-26T08:51:21;5.53;;;2.70;;
23302;SDS011;11820;48.738;9.092;2024-02-26T08:53:46;3.93;;;1.90;;
23302;SDS011;11820;48.738;9.092;2024-02-26T08:56:12;7.03;;;2.23;;
23302;SDS011;11820;48.738;9.092;2024-02-26T08:58:41;1.70;;;1.37;;
23302;SDS011;11820;48.738;9.092;2024-02-26T09:01:07;2.17;;;1.87;;
23302;SDS011;11820;48.738;9.092;2024-02-26T09:03:32;2.47;;;2.27;;
23302;SDS011;11820;48.738;9.092;2024-02-26T09:05:57;4.43;;;1.90;;
23302;SDS011;11820;48.738;9.092;2024-02-26T09:08:22;9.33;;;4.70;;
23302;SDS011;11820;48.738;9.092;2024-02-26T09:10:49;3.67;;;2.77;;
23302;SDS011;11820;48.738;9.092;2024-02-26T09:13:14;5.23;;;2.40;;
23302;SDS011;11820;48.738;9.092;2024-02-26T09:15:39;4.10;;;2.13;;
23302;SDS011;11820;48.738;9.092;2024-02-26T09:18:05;2.67;;;2.07;;
23302;SDS011;11820;48.738;9.092;2024-02-26T09:20:30;5.10;;;2.40;;
23302;SDS011;11820;48.738;9.092;2024-02-26T09:22:55;6.00;;;1.70;;
23302;SDS011;11820;48.738;9.092;2024-02-26T09:25:21;1.80;;;1.60;;
23302;SDS011;11820;48.738;9.092;2024-02-26T09:27:46;5.30;;;1.87;;
23302;SDS011;11820;48.738;9.092;2024-02-26T09:30:12;2.27;;;1.90;;
23302;SDS011;11820;48.738;9.092;2024-02-26T09:32:38;3.20;;;1.70;;
23302;SDS011;11820;48.738;9.092;2024-02-26T09:35:03;4.20;;;2.00;;
23302;SDS011;11820;48.738;9.092;2024-02-26T09:37:28;3.37;;;2.03;;
23302;SDS011;11820;48.738;9.092;2024-02-26T09:39:54;4.57;;;1.70;;
23302;SDS011;11820;48.738;9.092;2024-02-26T09:42:19;3.33;;;1.60;;
23302;SDS011;11820;48.738;9.092;2024-02-26T09:44:45;4.13;;;2.00;;
23302;SDS011;11820;48.738;9.092;2024-02-26T09:47:11;4.53;;;1.90;;
23302;SDS011;11820;48.738;9.092;2024-02-26T09:49:38;4.50;;;2.13;;
23302;SDS011;11820;48.738;9.092;2024-02-26T09:52:04;6.13;;;2.27;;
23302;SDS011;11820;48.738;9.092;2024-02-26T09:54:30;4.80;;;2.20;;
23302;SDS011;11820;48.738;9.092;2024-02-26T09:56:57;3.83;;;1.87;;
23302;SDS011;11820;48.738;9.092;2024-02-26T09:59:24;4.03;;;2.07;;
23302;SDS011;11820;48.738;9.092;2024-02-26T10:01:49;3.97;;;1.93;;
23302;SDS011;11820;48.738;9.092;2024-02-26T10:04:15;3.37;;;1.37;;
23302;SDS011;11820;48.738;9.092;2024-02-26T10:06:41;5.40;;;1.67;;
23302;SDS011;11820;48.738;9.092;2024-02-26T10:09:09;2.93;;;1.50;;
23302;SDS011;11820;48.738;9.092;2024-02-26T10:11:34;2.23;;;1.40;;
23302;SDS011;11820;48.738;9.092;2024-02-26T10:14:00;2.93;;;1.50;;
23302;SDS011;11820;48.738;9.092;2024-02-26T10:16:25;1.60;;;1.27;;
23302;SDS011;11820;48.738;9.092;2024-02-26T10:18:51;1.80;;;1.50;;
23302;SDS011;11820;48.738;9.092;2024-02-26T10:21:21;1.47;;;1.37;;
23302;SDS011;11820;48.738;9.092;2024-02-26T10:23:47;1.83;;;1.50;;
23302;SDS011;11820;48.738;9.092;2024-02-26T10:26:13;2.10;;;1.23;;
23302;SDS011;11820;48.738;9.092;2024-02-26T10:28:45;2.60;;;1.40;;
23302;SDS011;11820;48.738;9.092;2024-02-26T10:31:11;2.33;;;1.60;;
23302;SDS011;11820;48.738;9.092;2024-02-26T10:33:36;2.63;;;2.07;;
23302;SDS011;11820;48.738;9.092;2024-02-26T10:36:02;4.73;;;2.50;;
23302;SDS011;11820;48.738;9.092;2024-02-26T10:38:29;1.67;;;1.57;;
23302;SDS011;11820;48.738;9.092;2024-02-26T10:40:54;2.27;;;1.20;;
23302;SDS011;11820;48.738;9.092;2024-02-26T10:43:20;2.50;;;1.97;;
23302;SDS011;11820;48.738;9.092;2024-02-26T10:45:45;3.40;;;1.70;;
23302;SDS011;11820;48.738;9.092;2024-02-26T10:48:12;3.20;;;2.00;;
23302;SDS011;11820;48.738;9.092;2024-02-26T10:50:39;1.83;;;1.50;;
23302;SDS011;11820;48.738;9.092;2024-02-26T10:53:05;1.60;;;1.20;;
23302;SDS011;11820;48.738;9.092;2024-02-26T10:55:31;4.90;;;1.50;;
23302;SDS011;11820;48.738;9.092;2024-02-26T10:58:00;3.77;;;1.80;;
23302;SDS011;11820;48.738;9.092;2024-02-26T11:00:25;2.90;;;1.73;;
23302;SDS011;11820;48.738;9.092;2024-02-26T11:02:51;2.87;;;2.23;;
23302;SDS011;11820;48.738;9.092;2024-02-26T11:05:16;4.97;;;2.10;;
23302;SDS011;11820;48.738;9.092;2024-02-26T11:07:42;2.23;;;1.70;;
23302;SDS011;11820;48.738;9.092;2024-02-26T11:10:09;2.50;;;1.50;;
23302;SDS011;11820;48.738;9.092;2024-02-26T11:12:36;1.70;;;1.50;;
23302;SDS011;11820;48.738;9.092;2024-02-26T11:15:04;1.53;;;1.20;;
23302;SDS011;11820;48.738;9.092;2024-02-26T11:17:30;3.33;;;1.67;;
23302;SDS011;11820;48.738;9.092;2024-02-26T11:19:57;3.33;;;2.00;;
23302;SDS011;11820;48.738;9.092;2024-02-26T11:22:24;1.87;;;1.43;;
23302;SDS011;11820;48.738;9.092;2024-02-26T11:24:53;3.63;;;1.70;;
23302;SDS011;11820;48.738;9.092;2024-02-26T11:27:21;3.27;;;1.77;;
23302;SDS011;11820;48.738;9.092;2024-02-26T11:29:49;1.70;;;1.60;;
23302;SDS011;11820;48.738;9.092;2024-02-26T11:32:17;1.97;;;1.77;;
23302;SDS011;11820;48.738;9.092;2024-02-26T11:34:42;1.67;;;1.40;;
23302;SDS011;11820;48.738;9.092;2024-02-26T11:37:10;2.10;;;1.57;;
23302;SDS011;11820;48.738;9.092;2024-02-26T11:39:35;2.40;;;1.60;;
23302;SDS011;11820;48.738;9.092;2024-02-26T11:42:10;5.97;;;2.30;;
23302;SDS011;11820;48.738;9.092;2024-02-26T11:44:39;2.30;;;1.70;;
23302;SDS011;11820;48.738;9.092;2024-02-26T11:47:13;2.50;;;1.47;;
23302;SDS011;11820;48.738;9.092;2024-02-26T11:49:42;2.40;;;1.70;;
23302;SDS011;11820;48.738;9.092;2024-02-26T11:52:08;1.90;;;1.40;;
23302;SDS011;11820;48.738;9.092;2024-02-26T11:54:38;1.30;;;1.17;;
23302;SDS011;11820;48.738;9.092;2024-02-26T11:57:03;1.23;;;1.13;;
23302;SDS011;11820;48.738;9.092;2024-02-26T11:59:38;1.23;;;1.13;;
23302;SDS011;11820;48.738;9.092;2024-02-26T12:02:05;2.07;;;1.20;;
23302;SDS011;11820;48.738;9.092;2024-02-26T12:04:32;2.07;;;1.40;;
23302;SDS011;11820;48.738;9.092;2024-02-26T12:06:58;2.20;;;1.40;;
23302;SDS011;11820;48.738;9.092;2024-02-26T12:09:32;2.03;;;1.50;;
23302;SDS011;11820;48.738;9.092;2024-02-26T12:11:59;2.43;;;1.50;;
23302;SDS011;11820;48.738;9.092;2024-02-26T12:14:26;1.37;;;1.27;;
23302;SDS011;11820;48.738;9.092;2024-02-26T12:16:52;3.00;;;1.20;;
23302;SDS011;11820;48.738;9.092;2024-02-26T12:19:18;1.40;;;1.20;;
23302;SDS011;11820;48.738;9.092;2024-02-26T12:21:43;1.43;;;1.17;;
23302;SDS011;11820;48.738;9.092;2024-02-26T12:24:13;2.23;;;1.30;;
23302;SDS011;11820;48.738;9.092;2024-02-26T12:26:41;2.23;;;1.17;;
23302;SDS011;11820;48.738;9.092;2024-02-26T12:29:07;1.53;;;0.93;;
23302;SDS011;11820;48.738;9.092;2024-02-26T12:31:33;1.27;;;1.17;;
23302;SDS011;11820;48.738;9.092;2024-02-26T12:33:59;1.53;;;1.07;;
23302;SDS011;11820;48.738;9.092;2024-02-26T12:36:24;1.53;;;1.10;;
23302;SDS011;11820;48.738;9.092;2024-02-26T12:38:50;4.77;;;1.50;;
23302;SDS011;11820;48.738;9.092;2024-02-26T12:41:16;1.00;;;0.90;;
23302;SDS011;11820;48.738;9.092;2024-02-26T12:43:42;1.70;;;1.37;;
23302;SDS011;11820;48.738;9.092;2024-02-26T12:46:07;0.97;;;0.93;;
23302;SDS011;11820;48.738;9.092;2024-02-26T12:48:33;1.40;;;1.00;;
23302;SDS011;11820;48.738;9.092;2024-02-26T12:50:58;1.70;;;1.40;;
23302;SDS011;11820;48.738;9.092;2024-02-26T12:53:24;3.33;;;1.20;;
23302;SDS011;11820;48.738;9.092;2024-02-26T12:55:50;1.97;;;1.40;;
23302;SDS011;11820;48.738;9.092;2024-02-26T12:58:16;2.17;;;0.90;;
23302;SDS011;11820;48.738;9.092;2024-02-26T13:00:42;1.80;;;1.30;;
23302;SDS011;11820;48.738;9.092;2024-02-26T13:03:07;2.13;;;1.30;;
23302;SDS011;11820;48.738;9.092;2024-02-26T13:05:34;1.40;;;1.30;;
23302;SDS011;11820;48.738;9.092;2024-02-26T13:07:59;1.83;;;1.40;;
23302;SDS011;11820;48.738;9.092;2024-02-26T13:10:25;1.53;;;1.10;;
23302;SDS011;11820;48.738;9.092;2024-02-26T13:12:50;1.93;;;0.90;;
23302;SDS011;11820;48.738;9.092;2024-02-26T13:15:16;1.00;;;0.90;;
23302;SDS011;11820;48.738;9.092;2024-02-26T13:17:43;2.57;;;0.97;;
23302;SDS011;11820;48.738;9.092;2024-02-26T13:20:09;1.40;;;1.10;;
23302;SDS011;11820;48.738;9.092;2024-02-26T13:22:35;1.07;;;0.97;;
23302;SDS011;11820;48.738;9.092;2024-02-26T13:25:03;1.07;;;0.90;;
23302;SDS011;11820;48.738;9.092;2024-02-26T13:27:32;1.67;;;1.33;;
23302;SDS011;11820;48.738;9.092;2024-02-26T13:32:34;1.23;;;0.83;;
23302;SDS011;11820;48.738;9.092;2024-02-26T13:35:07;2.30;;;0.90;;
23302;SDS011;11820;48.738;9.092;2024-02-26T13:37:37;1.97;;;1.80;;
23302;SDS011;11820;48.738;9.092;2024-02-26T13:40:04;5.00;;;2.10;;
23302;SDS011;11820;48.738;9.092;2024-02-26T13:42:30;3.17;;;2.00;;
23302;SDS011;11820;48.738;9.092;2024-02-26T13:44:55;2.00;;;1.57;;
23302;SDS011;11820;48.738;9.092;2024-02-26T13:47:20;2.07;;;1.40;;
23302;SDS011;11820;48.738;9.092;2024-02-26T13:49:46;4.33;;;2.20;;
23302;SDS011;11820;48.738;9.092;2024-02-26T13:52:11;3.23;;;1.43;;
23302;SDS011;11820;48.738;9.092;2024-02-26T13:54:36;1.53;;;1.33;;
23302;SDS011;11820;48.738;9.092;2024-02-26T13:57:03;3.20;;;1.53;;
23302;SDS011;11820;48.738;9.092;2024-02-26T13:59:29;3.97;;;1.60;;
23302;SDS011;11820;48.738;9.092;2024-02-26T14:01:54;10.13;;;1.70;;
23302;SDS011;11820;48.738;9.092;2024-02-26T14:04:20;3.00;;;1.60;;
23302;SDS011;11820;48.738;9.092;2024-02-26T14:06:45;1.80;;;1.37;;
23302;SDS011;11820;48.738;9.092;2024-02-26T14:09:11;4.33;;;1.40;;
23302;SDS011;11820;48.738;9.092;2024-02-26T14:11:36;2.47;;;2.23;;
23302;SDS011;11820;48.738;9.092;2024-02-26T14:14:02;5.07;;;2.70;;
23302;SDS011;11820;48.738;9.092;2024-02-26T14:16:27;3.43;;;2.30;;
23302;SDS011;11820;48.738;9.092;2024-02-26T14:18:53;3.83;;;1.67;;
23302;SDS011;11820;48.738;9.092;2024-02-26T14:21:18;5.30;;;1.80;;
23302;SDS011;11820;48.738;9.092;2024-02-26T14:23:43;2.73;;;1.47;;
23302;SDS011;11820;48.738;9.092;2024-02-26T14:26:09;2.47;;;1.60;;
23302;SDS011;11820;48.738;9.092;2024-02-26T14:28:37;1.20;;;1.10;;
23302;SDS011;11820;48.738;9.092;2024-02-26T14:31:05;1.40;;;1.30;;
23302;SDS011;11820;48.738;9.092;2024-02-26T14:33:32;3.50;;;1.30;;
23302;SDS011;11820;48.738;9.092;2024-02-26T14:35:57;1.77;;;1.20;;
23302;SDS011;11820;48.738;9.092;2024-02-26T14:38:23;2.40;;;1.10;;
23302;SDS011;11820;48.738;9.092;2024-02-26T14:40:48;1.33;;;0.90;;